sensor_id;sensor_type;location;lat;lon;timestamp;pressure;altitude;pressure_sealevel;temperature;humidity
58662;BME280;44432;49.786;22.760;2023-02-02T00:02:13;98408.79;;;1.51;84.42
58662;BME280;44432;49.786;22.760;2023-02-02T00:04:44;98407.58;;;1.53;84.55
58662;BME280;44432;49.786;22.760;2023-02-02T00:07:15;98405.77;;;1.53;84.54
58662;BME280;44432;49.786;22.760;2023-02-02T00:09:45;98404.52;;;1.56;84.53
58662;BME280;44432;49.786;22.760;2023-02-02T00:12:16;98406.31;;;1.59;84.58
58662;BME280;44432;49.786;22.760;2023-02-02T00:14:47;98401.05;;;1.61;84.43
58662;BME280;44432;49.786;22.760;2023-02-02T00:17:18;98397.52;;;1.63;84.65
58662;BME280;44432;49.786;22.760;2023-02-02T00:19:49;98401.33;;;1.62;84.57
58662;BME280;44432;49.786;22.760;2023-02-02T00:22:19;98402.66;;;1.63;84.56
58662;BME280;44432;49.786;22.760;2023-02-02T00:24:50;98399.38;;;1.63;84.77
58662;BME280;44432;49.786;22.760;2023-02-02T00:27:21;98397.44;;;1.62;84.74
58662;BME280;44432;49.786;22.760;2023-02-02T00:29:52;98398.78;;;1.61;84.32
58662;BME280;44432;49.786;22.760;2023-02-02T00:32:23;98393.52;;;1.60;84.30
58662;BME280;44432;49.786;22.760;2023-02-02T00:34:53;98393.31;;;1.59;84.72
58662;BME280;44432;49.786;22.760;2023-02-02T00:37:24;98392.31;;;1.57;84.36
58662;BME280;44432;49.786;22.760;2023-02-02T00:39:55;98391.98;;;1.54;84.14
58662;BME280;44432;49.786;22.760;2023-02-02T00:42:25;98390.50;;;1.49;84.37
58662;BME280;44432;49.786;22.760;2023-02-02T00:44:56;98385.70;;;1.44;84.30
58662;BME280;44432;49.786;22.760;2023-02-02T00:47:46;98385.20;;;1.38;84.09
58662;BME280;44432;49.786;22.760;2023-02-02T00:50:19;98381.73;;;1.31;84.24
58662;BME280;44432;49.786;22.760;2023-02-02T00:52:50;98376.80;;;1.27;84.47
58662;BME280;44432;49.786;22.760;2023-02-02T00:55:21;98374.97;;;1.25;84.95
58662;BME280;44432;49.786;22.760;2023-02-02T00:57:52;98373.73;;;1.24;84.89
58662;BME280;44432;49.786;22.760;2023-02-02T01:00:25;98366.98;;;1.22;84.67
58662;BME280;44432;49.786;22.760;2023-02-02T01:02:56;98369.25;;;1.21;84.95
58662;BME280;44432;49.786;22.760;2023-02-02T01:05:33;98371.33;;;1.18;84.88
58662;BME280;44432;49.786;22.760;2023-02-02T01:08:04;98369.59;;;1.15;84.79
58662;BME280;44432;49.786;22.760;2023-02-02T01:10:35;98368.52;;;1.15;85.35
58662;BME280;44432;49.786;22.760;2023-02-02T01:13:06;98364.89;;;1.16;85.23
58662;BME280;44432;49.786;22.760;2023-02-02T01:15:37;98359.86;;;1.19;85.22
58662;BME280;44432;49.786;22.760;2023-02-02T01:18:08;98357.77;;;1.23;85.26
58662;BME280;44432;49.786;22.760;2023-02-02T01:20:38;98360.55;;;1.27;85.14
58662;BME280;44432;49.786;22.760;2023-02-02T01:23:09;98356.91;;;1.32;85.28
58662;BME280;44432;49.786;22.760;2023-02-02T01:25:40;98351.90;;;1.36;84.71
58662;BME280;44432;49.786;22.760;2023-02-02T01:28:10;98352.56;;;1.41;84.61
58662;BME280;44432;49.786;22.760;2023-02-02T01:30:41;98347.14;;;1.44;84.47
58662;BME280;44432;49.786;22.760;2023-02-02T01:33:12;98345.87;;;1.48;84.38
58662;BME280;44432;49.786;22.760;2023-02-02T01:35:46;98346.76;;;1.50;84.64
58662;BME280;44432;49.786;22.760;2023-02-02T01:38:18;98347.23;;;1.54;84.33
58662;BME280;44432;49.786;22.760;2023-02-02T01:40:51;98355.80;;;1.56;84.08
58662;BME280;44432;49.786;22.760;2023-02-02T01:43:22;98358.84;;;1.58;84.21
58662;BME280;44432;49.786;22.760;2023-02-02T01:45:55;98358.44;;;1.60;84.19
58662;BME280;44432;49.786;22.760;2023-02-02T01:48:28;98359.29;;;1.62;84.27
58662;BME280;44432;49.786;22.760;2023-02-02T01:51:03;98350.23;;;1.61;83.91
58662;BME280;44432;49.786;22.760;2023-02-02T01:53:35;98346.39;;;1.58;83.70
58662;BME280;44432;49.786;22.760;2023-02-02T01:56:07;98347.52;;;1.56;83.95
58662;BME280;44432;49.786;22.760;2023-02-02T01:58:41;98351.74;;;1.52;83.88
58662;BME280;44432;49.786;22.760;2023-02-02T02:01:13;98354.34;;;1.49;84.02
58662;BME280;44432;49.786;22.760;2023-02-02T02:03:44;98354.07;;;1.47;84.08
58662;BME280;44432;49.786;22.760;2023-02-02T02:06:16;98351.05;;;1.46;84.28
58662;BME280;44432;49.786;22.760;2023-02-02T02:08:50;98350.44;;;1.46;84.12
58662;BME280;44432;49.786;22.760;2023-02-02T02:11:22;98349.19;;;1.44;84.36
58662;BME280;44432;49.786;22.760;2023-02-02T02:13:56;98347.28;;;1.43;84.66
58662;BME280;44432;49.786;22.760;2023-02-02T02:27:10;98339.64;;;1.36;84.93
58662;BME280;44432;49.786;22.760;2023-02-02T02:33:00;98336.48;;;1.33;85.12
58662;BME280;44432;49.786;22.760;2023-02-02T02:35:35;98338.02;;;1.32;85.21
58662;BME280;44432;49.786;22.760;2023-02-02T02:38:17;98349.02;;;1.26;85.22
58662;BME280;44432;49.786;22.760;2023-02-02T02:40:54;98346.67;;;1.20;85.42
58662;BME280;44432;49.786;22.760;2023-02-02T02:43:29;98337.76;;;1.17;85.69
58662;BME280;44432;49.786;22.760;2023-02-02T02:46:02;98338.86;;;1.18;85.88
58662;BME280;44432;49.786;22.760;2023-02-02T02:48:33;98341.77;;;1.19;85.81
58662;BME280;44432;49.786;22.760;2023-02-02T02:51:33;98350.39;;;1.19;86.06
58662;BME280;44432;49.786;22.760;2023-02-02T02:53:59;98354.40;;;1.20;86.16
58662;BME280;44432;49.786;22.760;2023-02-02T02:56:35;98353.62;;;1.21;86.05
58662;BME280;44432;49.786;22.760;2023-02-02T02:59:15;98350.80;;;1.23;86.34
58662;BME280;44432;49.786;22.760;2023-02-02T03:01:57;98352.61;;;1.25;86.17
58662;BME280;44432;49.786;22.760;2023-02-02T03:04:35;98353.29;;;1.25;86.36
58662;BME280;44432;49.786;22.760;2023-02-02T03:07:13;98351.29;;;1.28;86.62
58662;BME280;44432;49.786;22.760;2023-02-02T03:09:48;98351.16;;;1.30;86.61
58662;BME280;44432;49.786;22.760;2023-02-02T03:12:21;98347.67;;;1.32;86.52
58662;BME280;44432;49.786;22.760;2023-02-02T03:14:52;98346.91;;;1.34;86.38
58662;BME280;44432;49.786;22.760;2023-02-02T03:17:23;98344.77;;;1.36;86.54
58662;BME280;44432;49.786;22.760;2023-02-02T03:19:54;98346.64;;;1.38;86.35
58662;BME280;44432;49.786;22.760;2023-02-02T03:22:24;98350.96;;;1.38;86.34
58662;BME280;44432;49.786;22.760;2023-02-02T03:24:55;98346.46;;;1.40;86.35
58662;BME280;44432;49.786;22.760;2023-02-02T03:27:28;98345.05;;;1.41;86.23
58662;BME280;44432;49.786;22.760;2023-02-02T03:29:59;98348.06;;;1.42;86.44
58662;BME280;44432;49.786;22.760;2023-02-02T03:32:29;98347.31;;;1.43;86.59
58662;BME280;44432;49.786;22.760;2023-02-02T03:35:00;98346.86;;;1.44;86.58
58662;BME280;44432;49.786;22.760;2023-02-02T03:37:31;98348.16;;;1.46;86.64
58662;BME280;44432;49.786;22.760;2023-02-02T03:40:02;98347.46;;;1.47;86.55
58662;BME280;44432;49.786;22.760;2023-02-02T03:42:32;98352.81;;;1.49;86.53
58662;BME280;44432;49.786;22.760;2023-02-02T03:45:04;98348.34;;;1.50;86.54
58662;BME280;44432;49.786;22.760;2023-02-02T03:47:35;98346.63;;;1.50;86.25
58662;BME280;44432;49.786;22.760;2023-02-02T03:50:08;98347.52;;;1.51;86.53
58662;BME280;44432;49.786;22.760;2023-02-02T03:52:39;98353.61;;;1.51;86.46
58662;BME280;44432;49.786;22.760;2023-02-02T03:55:10;98350.05;;;1.49;86.34
58662;BME280;44432;49.786;22.760;2023-02-02T03:57:40;98351.01;;;1.48;86.40
58662;BME280;44432;49.786;22.760;2023-02-02T04:00:13;98347.36;;;1.48;86.61
58662;BME280;44432;49.786;22.760;2023-02-02T04:02:45;98344.61;;;1.49;86.55
58662;BME280;44432;49.786;22.760;2023-02-02T04:05:16;98343.54;;;1.50;86.49
58662;BME280;44432;49.786;22.760;2023-02-02T04:07:46;98344.36;;;1.49;86.36
58662;BME280;44432;49.786;22.760;2023-02-02T04:10:18;98345.51;;;1.48;86.55
58662;BME280;44432;49.786;22.760;2023-02-02T04:12:49;98341.33;;;1.46;86.64
58662;BME280;44432;49.786;22.760;2023-02-02T04:15:19;98340.19;;;1.45;86.45
58662;BME280;44432;49.786;22.760;2023-02-02T04:17:50;98337.59;;;1.43;86.44
58662;BME280;44432;49.786;22.760;2023-02-02T04:20:21;98341.45;;;1.41;86.63
58662;BME280;44432;49.786;22.760;2023-02-02T04:22:52;98346.38;;;1.39;86.61
58662;BME280;44432;49.786;22.760;2023-02-02T04:25:23;98344.63;;;1.37;86.95
58662;BME280;44432;49.786;22.760;2023-02-02T04:27:54;98346.35;;;1.38;86.87
58662;BME280;44432;49.786;22.760;2023-02-02T04:30:24;98347.47;;;1.37;87.00
58662;BME280;44432;49.786;22.760;2023-02-02T04:32:56;98351.39;;;1.38;86.86
58662;BME280;44432;49.786;22.760;2023-02-02T04:35:27;98353.27;;;1.38;87.00
58662;BME280;44432;49.786;22.760;2023-02-02T04:37:57;98360.52;;;1.38;86.83
58662;BME280;44432;49.786;22.760;2023-02-02T04:40:28;98360.70;;;1.39;86.99
58662;BME280;44432;49.786;22.760;2023-02-02T04:42:59;98368.94;;;1.42;87.02
58662;BME280;44432;49.786;22.760;2023-02-02T04:45:30;98371.64;;;1.42;86.95
58662;BME280;44432;49.786;22.760;2023-02-02T04:48:01;98380.70;;;1.43;86.83
58662;BME280;44432;49.786;22.760;2023-02-02T04:50:32;98384.34;;;1.43;87.01
58662;BME280;44432;49.786;22.760;2023-02-02T04:53:04;98386.86;;;1.44;86.72
58662;BME280;44432;49.786;22.760;2023-02-02T04:55:38;98390.27;;;1.42;86.92
58662;BME280;44432;49.786;22.760;2023-02-02T04:58:09;98391.17;;;1.38;86.81
58662;BME280;44432;49.786;22.760;2023-02-02T05:00:39;98401.57;;;1.35;86.94
58662;BME280;44432;49.786;22.760;2023-02-02T05:03:10;98405.80;;;1.33;86.82
58662;BME280;44432;49.786;22.760;2023-02-02T05:05:41;98412.69;;;1.30;87.19
58662;BME280;44432;49.786;22.760;2023-02-02T05:08:11;98416.67;;;1.29;87.09
58662;BME280;44432;49.786;22.760;2023-02-02T05:10:42;98420.90;;;1.28;87.22
58662;BME280;44432;49.786;22.760;2023-02-02T05:13:13;98423.55;;;1.26;87.23
58662;BME280;44432;49.786;22.760;2023-02-02T05:15:44;98429.15;;;1.24;87.23
58662;BME280;44432;49.786;22.760;2023-02-02T05:18:15;98435.05;;;1.23;87.56
58662;BME280;44432;49.786;22.760;2023-02-02T05:20:45;98440.73;;;1.22;87.37
58662;BME280;44432;49.786;22.760;2023-02-02T05:23:16;98439.16;;;1.20;87.39
58662;BME280;44432;49.786;22.760;2023-02-02T05:25:52;98439.78;;;1.19;87.57
58662;BME280;44432;49.786;22.760;2023-02-02T05:28:23;98442.79;;;1.17;87.61
58662;BME280;44432;49.786;22.760;2023-02-02T05:30:54;98446.86;;;1.15;87.33
58662;BME280;44432;49.786;22.760;2023-02-02T05:33:25;98449.23;;;1.14;87.68
58662;BME280;44432;49.786;22.760;2023-02-02T05:35:56;98451.62;;;1.13;87.74
58662;BME280;44432;49.786;22.760;2023-02-02T05:38:27;98456.48;;;1.14;88.01
58662;BME280;44432;49.786;22.760;2023-02-02T05:40:58;98459.38;;;1.13;87.88
58662;BME280;44432;49.786;22.760;2023-02-02T05:43:30;98463.08;;;1.14;87.96
58662;BME280;44432;49.786;22.760;2023-02-02T05:46:02;98464.48;;;1.14;87.90
58662;BME280;44432;49.786;22.760;2023-02-02T05:48:32;98469.16;;;1.14;88.07
58662;BME280;44432;49.786;22.760;2023-02-02T05:51:05;98474.55;;;1.14;88.00
58662;BME280;44432;49.786;22.760;2023-02-02T05:53:37;98478.02;;;1.15;88.10
58662;BME280;44432;49.786;22.760;2023-02-02T05:56:08;98473.66;;;1.16;87.93
58662;BME280;44432;49.786;22.760;2023-02-02T05:58:39;98480.66;;;1.18;88.08
58662;BME280;44432;49.786;22.760;2023-02-02T06:01:10;98486.45;;;1.19;88.13
58662;BME280;44432;49.786;22.760;2023-02-02T06:03:40;98491.66;;;1.20;88.04
58662;BME280;44432;49.786;22.760;2023-02-02T06:06:11;98488.41;;;1.22;88.06
58662;BME280;44432;49.786;22.760;2023-02-02T06:08:42;98487.43;;;1.22;88.13
58662;BME280;44432;49.786;22.760;2023-02-02T06:11:14;98485.05;;;1.24;88.11
58662;BME280;44432;49.786;22.760;2023-02-02T06:13:45;98487.69;;;1.23;87.99
58662;BME280;44432;49.786;22.760;2023-02-02T06:16:16;98500.90;;;1.26;87.78
58662;BME280;44432;49.786;22.760;2023-02-02T06:18:47;98504.13;;;1.28;87.86
58662;BME280;44432;49.786;22.760;2023-02-02T06:21:18;98506.82;;;1.30;87.81
58662;BME280;44432;49.786;22.760;2023-02-02T06:23:51;98508.86;;;1.32;87.94
58662;BME280;44432;49.786;22.760;2023-02-02T06:26:22;98511.70;;;1.35;87.70
58662;BME280;44432;49.786;22.760;2023-02-02T06:28:53;98508.30;;;1.38;87.75
58662;BME280;44432;49.786;22.760;2023-02-02T06:31:24;98504.80;;;1.41;87.69
58662;BME280;44432;49.786;22.760;2023-02-02T06:33:57;98508.06;;;1.44;87.62
58662;BME280;44432;49.786;22.760;2023-02-02T06:36:27;98505.33;;;1.45;87.60
58662;BME280;44432;49.786;22.760;2023-02-02T06:38:58;98502.35;;;1.47;87.57
58662;BME280;44432;49.786;22.760;2023-02-02T06:41:28;98505.40;;;1.49;87.59
58662;BME280;44432;49.786;22.760;2023-02-02T06:44:00;98508.79;;;1.53;87.61
58662;BME280;44432;49.786;22.760;2023-02-02T06:46:31;98506.94;;;1.57;87.55
58662;BME280;44432;49.786;22.760;2023-02-02T06:49:02;98508.60;;;1.60;87.45
58662;BME280;44432;49.786;22.760;2023-02-02T06:51:34;98508.00;;;1.63;87.40
58662;BME280;44432;49.786;22.760;2023-02-02T06:54:06;98510.38;;;1.66;87.20
58662;BME280;44432;49.786;22.760;2023-02-02T06:56:36;98509.83;;;1.71;87.37
58662;BME280;44432;49.786;22.760;2023-02-02T06:59:07;98503.73;;;1.78;87.37
58662;BME280;44432;49.786;22.760;2023-02-02T07:01:38;98504.02;;;1.84;87.38
58662;BME280;44432;49.786;22.760;2023-02-02T07:04:09;98496.98;;;1.89;87.06
58662;BME280;44432;49.786;22.760;2023-02-02T07:06:40;98496.51;;;1.95;87.13
58662;BME280;44432;49.786;22.760;2023-02-02T07:09:10;98501.20;;;2.03;87.23
58662;BME280;44432;49.786;22.760;2023-02-02T07:11:41;98500.99;;;2.10;87.05
58662;BME280;44432;49.786;22.760;2023-02-02T07:14:12;98502.23;;;2.14;86.70
58662;BME280;44432;49.786;22.760;2023-02-02T07:16:42;98503.20;;;2.18;86.73
58662;BME280;44432;49.786;22.760;2023-02-02T07:19:13;98500.38;;;2.21;86.28
58662;BME280;44432;49.786;22.760;2023-02-02T07:23:13;98508.52;;;2.27;86.06
58662;BME280;44432;49.786;22.760;2023-02-02T07:25:43;98514.29;;;2.25;86.26
58662;BME280;44432;49.786;22.760;2023-02-02T07:28:14;98513.42;;;2.27;85.89
58662;BME280;44432;49.786;22.760;2023-02-02T07:30:45;98517.15;;;2.29;85.84
58662;BME280;44432;49.786;22.760;2023-02-02T07:33:15;98518.10;;;2.31;86.05
58662;BME280;44432;49.786;22.760;2023-02-02T07:35:46;98522.89;;;2.32;85.77
58662;BME280;44432;49.786;22.760;2023-02-02T07:38:17;98520.91;;;2.31;85.73
58662;BME280;44432;49.786;22.760;2023-02-02T07:40:48;98519.27;;;2.32;85.75
58662;BME280;44432;49.786;22.760;2023-02-02T07:43:19;98525.05;;;2.34;85.69
58662;BME280;44432;49.786;22.760;2023-02-02T07:45:50;98523.84;;;2.35;85.49
58662;BME280;44432;49.786;22.760;2023-02-02T07:48:20;98522.62;;;2.36;85.54
58662;BME280;44432;49.786;22.760;2023-02-02T07:50:51;98518.04;;;2.41;85.44
58662;BME280;44432;49.786;22.760;2023-02-02T07:53:22;98514.40;;;2.47;85.47
58662;BME280;44432;49.786;22.760;2023-02-02T07:55:53;98520.63;;;2.54;85.92
58662;BME280;44432;49.786;22.760;2023-02-02T07:58:23;98521.29;;;2.60;85.64
58662;BME280;44432;49.786;22.760;2023-02-02T08:00:54;98525.11;;;2.65;85.34
58662;BME280;44432;49.786;22.760;2023-02-02T08:03:29;98525.83;;;2.68;85.16
58662;BME280;44432;49.786;22.760;2023-02-02T08:06:00;98523.27;;;2.66;84.77
58662;BME280;44432;49.786;22.760;2023-02-02T08:08:38;98524.95;;;2.65;84.96
58662;BME280;44432;49.786;22.760;2023-02-02T08:11:11;98522.54;;;2.65;85.16
58662;BME280;44432;49.786;22.760;2023-02-02T08:13:43;98517.27;;;2.67;84.88
58662;BME280;44432;49.786;22.760;2023-02-02T08:16:14;98514.95;;;2.67;84.78
58662;BME280;44432;49.786;22.760;2023-02-02T08:18:45;98512.55;;;2.70;84.73
58662;BME280;44432;49.786;22.760;2023-02-02T08:21:17;98517.44;;;2.72;84.46
58662;BME280;44432;49.786;22.760;2023-02-02T08:23:48;98515.13;;;2.80;84.73
58662;BME280;44432;49.786;22.760;2023-02-02T08:26:22;98511.77;;;2.88;84.73
58662;BME280;44432;49.786;22.760;2023-02-02T08:28:52;98508.39;;;2.93;84.55
58662;BME280;44432;49.786;22.760;2023-02-02T08:31:25;98509.70;;;2.98;84.23
58662;BME280;44432;49.786;22.760;2023-02-02T08:33:57;98513.11;;;3.03;84.11
58662;BME280;44432;49.786;22.760;2023-02-02T08:36:30;98510.18;;;3.09;83.92
58662;BME280;44432;49.786;22.760;2023-02-02T08:39:05;98511.06;;;3.14;83.71
58662;BME280;44432;49.786;22.760;2023-02-02T08:41:36;98508.94;;;3.19;83.68
58662;BME280;44432;49.786;22.760;2023-02-02T08:44:09;98508.64;;;3.24;83.24
58662;BME280;44432;49.786;22.760;2023-02-02T08:46:41;98499.05;;;3.31;83.28
58662;BME280;44432;49.786;22.760;2023-02-02T08:49:12;98495.70;;;3.42;83.35
58662;BME280;44432;49.786;22.760;2023-02-02T08:51:43;98500.83;;;3.49;83.08
58662;BME280;44432;49.786;22.760;2023-02-02T08:54:14;98499.16;;;3.55;82.66
58662;BME280;44432;49.786;22.760;2023-02-02T08:56:45;98503.83;;;3.61;82.82
58662;BME280;44432;49.786;22.760;2023-02-02T08:59:15;98497.67;;;3.68;82.64
58662;BME280;44432;49.786;22.760;2023-02-02T09:01:46;98500.86;;;3.75;82.42
58662;BME280;44432;49.786;22.760;2023-02-02T09:04:17;98496.79;;;3.81;82.31
58662;BME280;44432;49.786;22.760;2023-02-02T09:06:48;98492.66;;;3.88;82.13
58662;BME280;44432;49.786;22.760;2023-02-02T09:09:19;98496.16;;;3.93;81.74
58662;BME280;44432;49.786;22.760;2023-02-02T09:11:49;98491.44;;;4.01;81.91
58662;BME280;44432;49.786;22.760;2023-02-02T09:38:19;98475.90;;;4.70;79.29
58662;BME280;44432;49.786;22.760;2023-02-02T09:40:50;98475.26;;;4.85;78.89
58662;BME280;44432;49.786;22.760;2023-02-02T09:43:35;98472.50;;;4.91;78.85
58662;BME280;44432;49.786;22.760;2023-02-02T09:46:19;98475.33;;;4.93;78.60
58662;BME280;44432;49.786;22.760;2023-02-02T09:48:57;98474.80;;;4.93;78.40
58662;BME280;44432;49.786;22.760;2023-02-02T09:51:35;98469.39;;;4.96;78.34
58662;BME280;44432;49.786;22.760;2023-02-02T09:54:12;98470.85;;;5.01;78.27
58662;BME280;44432;49.786;22.760;2023-02-02T09:56:50;98473.92;;;5.07;78.50
58662;BME280;44432;49.786;22.760;2023-02-02T09:59:28;98466.37;;;5.11;78.13
58662;BME280;44432;49.786;22.760;2023-02-02T10:02:04;98466.28;;;5.11;77.55
58662;BME280;44432;49.786;22.760;2023-02-02T10:04:38;98468.78;;;5.10;77.46
58662;BME280;44432;49.786;22.760;2023-02-02T10:07:14;98465.77;;;5.04;77.18
58662;BME280;44432;49.786;22.760;2023-02-02T10:09:49;98462.27;;;4.99;77.24
58662;BME280;44432;49.786;22.760;2023-02-02T10:12:32;98459.09;;;4.98;77.26
58662;BME280;44432;49.786;22.760;2023-02-02T10:15:10;98457.80;;;4.97;77.08
58662;BME280;44432;49.786;22.760;2023-02-02T10:17:51;98453.95;;;4.94;77.01
58662;BME280;44432;49.786;22.760;2023-02-02T10:20:36;98449.54;;;4.96;77.04
58662;BME280;44432;49.786;22.760;2023-02-02T10:23:14;98444.73;;;5.01;76.71
58662;BME280;44432;49.786;22.760;2023-02-02T10:25:55;98440.04;;;5.06;76.52
58662;BME280;44432;49.786;22.760;2023-02-02T10:28:43;98438.88;;;5.12;76.55
58662;BME280;44432;49.786;22.760;2023-02-02T10:31:25;98435.30;;;5.14;75.76
58662;BME280;44432;49.786;22.760;2023-02-02T10:34:09;98438.55;;;5.13;75.82
58662;BME280;44432;49.786;22.760;2023-02-02T10:36:52;98436.40;;;5.16;75.98
58662;BME280;44432;49.786;22.760;2023-02-02T10:39:35;98434.81;;;5.27;75.66
58662;BME280;44432;49.786;22.760;2023-02-02T10:42:18;98435.63;;;5.32;75.67
58662;BME280;44432;49.786;22.760;2023-02-02T10:44:55;98432.21;;;5.36;75.72
58662;BME280;44432;49.786;22.760;2023-02-02T10:47:28;98438.13;;;5.35;75.78
58662;BME280;44432;49.786;22.760;2023-02-02T10:50:15;98431.16;;;5.31;75.55
58662;BME280;44432;49.786;22.760;2023-02-02T10:52:50;98429.87;;;5.22;74.97
58662;BME280;44432;49.786;22.760;2023-02-02T10:55:27;98429.30;;;5.11;74.99
58662;BME280;44432;49.786;22.760;2023-02-02T10:58:10;98432.81;;;5.00;75.27
58662;BME280;44432;49.786;22.760;2023-02-02T11:00:50;98428.61;;;4.93;75.54
58662;BME280;44432;49.786;22.760;2023-02-02T11:03:24;98430.65;;;4.89;75.90
58662;BME280;44432;49.786;22.760;2023-02-02T11:05:59;98429.55;;;4.85;75.72
58662;BME280;44432;49.786;22.760;2023-02-02T11:08:50;98425.27;;;4.80;76.01
58662;BME280;44432;49.786;22.760;2023-02-02T11:11:26;98427.14;;;4.76;76.06
58662;BME280;44432;49.786;22.760;2023-02-02T11:14:03;98418.23;;;4.72;76.04
58662;BME280;44432;49.786;22.760;2023-02-02T11:16:43;98415.59;;;4.72;76.20
58662;BME280;44432;49.786;22.760;2023-02-02T11:19:28;98417.75;;;4.71;76.19
58662;BME280;44432;49.786;22.760;2023-02-02T11:22:01;98413.64;;;4.67;75.94
58662;BME280;44432;49.786;22.760;2023-02-02T11:24:33;98410.30;;;4.66;76.18
58662;BME280;44432;49.786;22.760;2023-02-02T11:27:11;98414.66;;;4.65;76.14
58662;BME280;44432;49.786;22.760;2023-02-02T11:29:44;98404.90;;;4.64;76.30
58662;BME280;44432;49.786;22.760;2023-02-02T11:32:23;98403.89;;;4.64;76.58
58662;BME280;44432;49.786;22.760;2023-02-02T11:35:15;98399.86;;;4.60;76.55
58662;BME280;44432;49.786;22.760;2023-02-02T11:38:09;98399.90;;;4.60;76.49
58662;BME280;44432;49.786;22.760;2023-02-02T11:40:45;98399.34;;;4.52;76.56
58662;BME280;44432;49.786;22.760;2023-02-02T11:43:27;98399.80;;;4.49;76.93
58662;BME280;44432;49.786;22.760;2023-02-02T11:46:00;98402.13;;;4.44;76.84
58662;BME280;44432;49.786;22.760;2023-02-02T11:48:31;98401.99;;;4.36;77.10
58662;BME280;44432;49.786;22.760;2023-02-02T11:51:04;98402.73;;;4.30;77.54
58662;BME280;44432;49.786;22.760;2023-02-02T11:53:38;98398.05;;;4.25;77.74
58662;BME280;44432;49.786;22.760;2023-02-02T11:56:21;98398.71;;;4.22;77.79
58662;BME280;44432;49.786;22.760;2023-02-02T11:58:54;98403.01;;;4.19;77.78
58662;BME280;44432;49.786;22.760;2023-02-02T12:01:29;98400.98;;;4.16;77.93
58662;BME280;44432;49.786;22.760;2023-02-02T12:04:02;98397.27;;;4.14;77.99
58662;BME280;44432;49.786;22.760;2023-02-02T12:06:37;98390.83;;;4.07;78.11
58662;BME280;44432;49.786;22.760;2023-02-02T12:09:14;98398.50;;;4.06;78.31
58662;BME280;44432;49.786;22.760;2023-02-02T12:11:55;98396.77;;;3.99;78.45
58662;BME280;44432;49.786;22.760;2023-02-02T12:14:36;98394.48;;;3.93;78.34
58662;BME280;44432;49.786;22.760;2023-02-02T12:17:22;98394.40;;;3.87;78.65
58662;BME280;44432;49.786;22.760;2023-02-02T12:20:17;98394.52;;;3.82;79.00
58662;BME280;44432;49.786;22.760;2023-02-02T12:23:09;98391.58;;;3.79;79.32
58662;BME280;44432;49.786;22.760;2023-02-02T12:26:06;98398.17;;;3.75;79.48
58662;BME280;44432;49.786;22.760;2023-02-02T12:28:48;98396.23;;;3.67;79.17
58662;BME280;44432;49.786;22.760;2023-02-02T12:31:34;98398.10;;;3.60;79.38
58662;BME280;44432;49.786;22.760;2023-02-02T12:34:13;98403.05;;;3.55;79.86
58662;BME280;44432;49.786;22.760;2023-02-02T12:36:52;98400.64;;;3.51;79.87
58662;BME280;44432;49.786;22.760;2023-02-02T12:39:36;98398.49;;;3.44;79.71
58662;BME280;44432;49.786;22.760;2023-02-02T12:42:31;98403.83;;;3.39;80.36
58662;BME280;44432;49.786;22.760;2023-02-02T12:45:25;98403.80;;;3.35;80.62
58662;BME280;44432;49.786;22.760;2023-02-02T12:48:08;98401.11;;;3.26;80.63
58662;BME280;44432;49.786;22.760;2023-02-02T12:50:49;98404.16;;;3.18;80.57
58662;BME280;44432;49.786;22.760;2023-02-02T12:53:41;98403.81;;;3.08;80.81
58662;BME280;44432;49.786;22.760;2023-02-02T12:56:24;98409.09;;;2.98;80.92
58662;BME280;44432;49.786;22.760;2023-02-02T12:59:05;98418.99;;;2.86;81.15
58662;BME280;44432;49.786;22.760;2023-02-02T13:01:53;98412.92;;;2.75;80.98
58662;BME280;44432;49.786;22.760;2023-02-02T13:04:44;98417.23;;;2.59;80.97
58662;BME280;44432;49.786;22.760;2023-02-02T13:07:29;98417.01;;;2.44;80.95
58662;BME280;44432;49.786;22.760;2023-02-02T13:10:13;98418.65;;;2.31;81.56
58662;BME280;44432;49.786;22.760;2023-02-02T13:12:51;98419.07;;;2.23;82.04
58662;BME280;44432;49.786;22.760;2023-02-02T13:15:26;98424.10;;;2.19;82.55
58662;BME280;44432;49.786;22.760;2023-02-02T13:18:00;98421.70;;;2.17;82.61
58662;BME280;44432;49.786;22.760;2023-02-02T13:20:40;98425.79;;;2.16;83.02
58662;BME280;44432;49.786;22.760;2023-02-02T13:23:14;98426.29;;;2.15;83.25
58662;BME280;44432;49.786;22.760;2023-02-02T13:25:51;98426.92;;;2.14;83.47
58662;BME280;44432;49.786;22.760;2023-02-02T13:28:34;98427.97;;;2.12;83.55
58662;BME280;44432;49.786;22.760;2023-02-02T13:31:05;98428.06;;;2.10;83.56
58662;BME280;44432;49.786;22.760;2023-02-02T13:33:38;98427.23;;;2.07;83.55
58662;BME280;44432;49.786;22.760;2023-02-02T13:36:17;98431.59;;;2.05;83.97
58662;BME280;44432;49.786;22.760;2023-02-02T13:38:57;98433.40;;;2.06;84.11
58662;BME280;44432;49.786;22.760;2023-02-02T13:41:30;98437.08;;;2.05;84.02
58662;BME280;44432;49.786;22.760;2023-02-02T13:44:04;98441.13;;;2.03;84.17
58662;BME280;44432;49.786;22.760;2023-02-02T13:46:40;98440.27;;;1.99;84.08
58662;BME280;44432;49.786;22.760;2023-02-02T13:49:16;98444.26;;;1.95;84.18
58662;BME280;44432;49.786;22.760;2023-02-02T13:51:53;98449.12;;;1.93;84.47
58662;BME280;44432;49.786;22.760;2023-02-02T14:00:36;98456.06;;;1.89;85.00
58662;BME280;44432;49.786;22.760;2023-02-02T14:03:31;98455.16;;;1.88;85.34
58662;BME280;44432;49.786;22.760;2023-02-02T14:06:10;98458.02;;;1.86;85.25
58662;BME280;44432;49.786;22.760;2023-02-02T14:08:47;98464.95;;;1.84;85.41
58662;BME280;44432;49.786;22.760;2023-02-02T14:11:27;98465.73;;;1.81;85.33
58662;BME280;44432;49.786;22.760;2023-02-02T14:14:05;98464.80;;;1.77;85.74
58662;BME280;44432;49.786;22.760;2023-02-02T14:16:56;98469.11;;;1.77;85.67
58662;BME280;44432;49.786;22.760;2023-02-02T14:19:47;98470.00;;;1.77;86.17
58662;BME280;44432;49.786;22.760;2023-02-02T14:22:36;98474.17;;;1.75;86.04
58662;BME280;44432;49.786;22.760;2023-02-02T14:28:12;98479.26;;;1.70;86.03